Tuesday, May 23, 2017, 12:39 PM EDT

KIPT, Williamsport-lycoming County

Location: Montoursville, PA, United States Lat: 41.25
Local Time: 12:39 PM EDT (16:39 GMT) Lon: -76.917
Time Zone: US/Eastern Elev: 528 ft

Show me the last for .
Show Decoded

2017-05-23 11:54 METAR KIPT 231554Z 13003KT 10SM CLR 16/10 A2994 RMK AO2 SLP139 T01610100 =
2017-05-23 10:54 METAR KIPT 231454Z 00000KT 10SM CLR 15/09 A2996 RMK AO2 SLP145 T01500094 58005 =
2017-05-23 09:54 METAR KIPT 231354Z 26005KT 10SM CLR 14/09 A2998 RMK AO2 SLP152 T01390094 =
2017-05-23 08:54 METAR KIPT 231254Z 24004KT 10SM CLR 12/10 A2997 RMK AO2 SLP148 T01220100 =
2017-05-23 07:54 METAR KIPT 231154Z 29003KT 10SM SCT006 12/10 A2998 RMK AO2 SLP151 70001
                 T01170100 10139 20106 53003 =
2017-05-23 07:39 METAR KIPT 231139Z 29003KT 10SM SCT004 11/10 A2998 RMK AO2 T01110100 =
2017-05-23 06:54 METAR KIPT 231054Z 25004KT 7SM OVC002 11/10 A2997 RMK AO2 SLP148 T01060100 =
2017-05-23 06:45 METAR KIPT 231045Z 24004KT 3SM BR OVC002 11/10 A2997 RMK AO2 T01060100 =
2017-05-23 06:16 METAR KIPT 231016Z 00000KT 1 3/4SM BR OVC003 11/11 A2997 RMK AO2 T01060106 =
2017-05-23 05:54 METAR KIPT 230954Z AUTO 27003KT 6SM BR OVC003 11/11 A2997 RMK AO2 SLP148
                 T01060106 =
2017-05-23 05:06 METAR KIPT 230906Z AUTO 24004KT 5SM BR OVC002 11/11 A2997 RMK AO2 T01110111 =
2017-05-23 04:54 METAR KIPT 230854Z AUTO 29004KT 2 1/2SM BR OVC002 11/11 A2997 RMK AO2 SLP147
                 T01110106 58007 =
2017-05-23 04:24 METAR KIPT 230824Z AUTO 29004KT 4SM BR OVC002 12/12 A2997 RMK AO2 T01170117 =
2017-05-23 04:16 METAR KIPT 230816Z AUTO 31004KT 2 1/2SM BR OVC002 12/12 A2997 RMK AO2 T01170117
                 =
2017-05-23 03:54 METAR KIPT 230754Z AUTO 31005KT 5SM BR OVC002 12/12 A2998 RMK AO2 SLP152
                 T01220117 =
2017-05-23 03:48 METAR KIPT 230748Z AUTO 29006KT 3SM BR OVC002 12/12 A2998 RMK AO2 =
2017-05-23 03:36 METAR KIPT 230736Z AUTO 27005KT 1 1/4SM BR OVC002 12/12 A2999 RMK AO2 T01220122
                 =
2017-05-23 02:54 METAR KIPT 230654Z AUTO 30005KT 1/2SM FG VV002 13/13 A2999 RMK AO2 SLP154
                 T01280128 =
2017-05-23 02:49 METAR KIPT 230649Z AUTO 29005KT 1/2SM FG VV002 13/13 A2999 RMK AO2 =
2017-05-23 02:39 METAR KIPT 230639Z AUTO 30004KT 1/4SM FG VV002 13/13 A2999 RMK AO2 T01330133 =
2017-05-23 02:11 METAR KIPT 230611Z AUTO 28006KT 1 3/4SM BR OVC002 13/13 A2998 RMK AO2 T01330128
                 =
2017-05-23 01:54 METAR KIPT 230554Z AUTO 00000KT 3SM BR OVC002 14/14 A2998 RMK AO2 SLP153
                 T01390139 10178 20128 58001 =
2017-05-23 01:30 METAR KIPT 230530Z AUTO 00000KT 4SM BR BKN003 13/13 A2999 RMK AO2 T01330128 =
2017-05-23 01:20 METAR KIPT 230520Z AUTO 31004KT 5SM BR SCT003 13/12 A2999 RMK AO2 T01330122 =
2017-05-23 00:54 METAR KIPT 230454Z AUTO 00000KT 5SM BR BKN004 BKN012 13/13 A3000 RMK AO2 SLP157
                 T01330128 401940128 =
2017-05-23 00:51 METAR KIPT 230451Z AUTO 00000KT 5SM BR BKN004 BKN012 13/13 A3000 RMK AO2 =
2017-05-23 00:30 METAR KIPT 230430Z AUTO 35003KT 7SM FEW006 SCT014 BKN031 14/13 A3000 RMK AO2
                 T01390128 =
2017-05-23 00:23 METAR KIPT 230423Z AUTO 34006KT 2SM BR FEW006 SCT016 BKN031 14/13 A3000 RMK AO2
                 T01390128 =
2017-05-23 00:15 METAR KIPT 230415Z AUTO 36003KT 1SM BR VV006 13/12 A3000 RMK AO2 VIS 1/2V2 1/2
                 T01280122 =
2017-05-23 00:11 METAR KIPT 230411Z AUTO 00000KT 1 3/4SM BR CLR 13/13 A3000 RMK AO2 T01280128 =
2017-05-22 23:54 METAR KIPT 230354Z AUTO 00000KT 4SM BR CLR 13/13 A2999 RMK AO2 SLP157 T01330128
                 =
2017-05-22 22:54 METAR KIPT 230254Z AUTO 00000KT 8SM CLR 14/13 A2999 RMK AO2 SLP154 T01390133
                 53012 =
2017-05-22 21:54 METAR KIPT 230154Z 34003KT 10SM CLR 16/14 A2997 RMK AO2 SLP149 T01560139 =
2017-05-22 20:54 METAR KIPT 230054Z VRB03KT 10SM FEW020 17/14 A2996 RMK AO2 SLP144 T01720139 =
2017-05-22 20:46 METAR KIPT 230046Z 00000KT 10SM SCT020 17/14 A2996 RMK AO2 T01720139 =
2017-05-22 19:54 METAR KIPT 222354Z 09004KT 10SM OVC022 18/14 A2995 RMK AO2 SLP141 T01780139
                 10194 20161 53012 =
2017-05-22 18:54 METAR KIPT 222254Z 13006KT 10SM BKN019 18/14 A2993 RMK AO2 SLP135 T01830144 =
2017-05-22 17:54 METAR KIPT 222154Z 10005KT 10SM BKN020 19/14 A2993 RMK AO2 SLP132 T01890144 =
2017-05-22 17:01 METAR KIPT 222101Z 12005KT 10SM FEW019 19/14 A2992 RMK AO2 T01940144 =
2017-05-22 16:54 METAR KIPT 222054Z 12007KT 10SM BKN026 19/14 A2992 RMK AO2 SLP130 T01940144
                 56023 =
2017-05-22 15:54 METAR KIPT 221954Z 14006KT 10SM SCT022 BKN028 18/14 A2993 RMK AO2 SLP134
                 T01830144 =
2017-05-22 15:01 METAR KIPT 221901Z 14006KT 10SM SCT015 OVC024 18/14 A2996 RMK AO2 T01780144 =
2017-05-22 14:54 METAR KIPT 221854Z 13006KT 10SM BKN014 OVC024 18/14 A2996 RMK AO2 SLP144
                 T01780144 =
2017-05-22 14:40 METAR KIPT 221840Z 10007KT 10SM OVC014 17/14 A2997 RMK AO2 T01670139 =
2017-05-22 14:24 METAR KIPT 221824Z 09005KT 10SM OVC015 17/13 A2997 RMK AO2 T01670133 =
2017-05-22 13:54 METAR KIPT 221754Z VRB03KT 10SM OVC013 17/13 A2999 RMK AO2 SLP153 60001
                 T01670133 10167 20144 58009 =
2017-05-22 12:54 METAR KIPT 221654Z 00000KT 10SM OVC014 16/13 A3000 RMK AO2 RAB1557E29 SLP158
                 P0001 T01610133 =

Support USWX by starting your Amazon purchase here.